Time,TemperatureF,DewpointF,PressureIn,WindDirection,WindDirectionDegrees,WindSpeedMPH,WindSpeedGustMPH,Humidity,HourlyPrecipIn,Conditions,Clouds,dailyrainin,SoftwareType,DateUTC
2013-10-01 00:00:00,63.9,61.5,30.03,South,190,0.0,0.0,92,0.00,,,0.00,Wunderground v.1.13,2013-10-01 04:00:00,
2013-10-01 00:10:00,63.8,61.4,30.03,South,190,0.0,0.0,92,0.00,,,0.00,Wunderground v.1.13,2013-10-01 04:10:00,
2013-10-01 00:20:00,63.8,60.8,30.03,South,190,0.0,0.0,90,0.00,,,0.00,Wunderground v.1.13,2013-10-01 04:20:00,
2013-10-01 00:30:00,63.8,60.5,30.03,South,190,0.0,0.0,89,0.00,,,0.00,Wunderground v.1.13,2013-10-01 04:30:00,
2013-10-01 00:40:00,63.8,59.9,30.03,South,190,0.0,0.0,87,0.00,,,0.00,Wunderground v.1.13,2013-10-01 04:40:00,
2013-10-01 00:50:00,63.9,60.0,30.03,South,190,0.0,0.0,87,0.00,,,0.00,Wunderground v.1.13,2013-10-01 04:50:00,
2013-10-01 01:00:00,63.9,60.0,30.02,South,190,0.0,0.0,87,0.00,,,0.00,Wunderground v.1.13,2013-10-01 05:00:00,
2013-10-01 01:10:00,63.8,59.9,30.02,South,190,0.0,0.0,87,0.00,,,0.00,Wunderground v.1.13,2013-10-01 05:10:00,
2013-10-01 01:20:00,63.8,59.9,30.02,South,190,0.0,0.0,87,0.00,,,0.00,Wunderground v.1.13,2013-10-01 05:20:00,
2013-10-01 01:30:00,63.6,60.0,30.02,South,190,0.0,0.0,88,0.00,,,0.00,Wunderground v.1.13,2013-10-01 05:30:00,
2013-10-01 01:40:00,63.6,59.7,30.02,South,190,0.0,0.0,87,0.00,,,0.00,Wunderground v.1.13,2013-10-01 05:40:00,
2013-10-01 01:50:00,63.6,60.0,30.02,South,190,0.0,0.0,88,0.00,,,0.00,Wunderground v.1.13,2013-10-01 05:50:00,
2013-10-01 02:00:00,63.4,59.5,30.02,South,190,0.0,0.0,87,0.00,,,0.00,Wunderground v.1.13,2013-10-01 06:00:00,
2013-10-01 02:10:00,63.4,59.5,30.02,South,190,0.0,0.0,87,0.00,,,0.00,Wunderground v.1.13,2013-10-01 06:10:00,
2013-10-01 02:20:00,63.3,59.0,30.02,South,190,0.0,0.0,86,0.00,,,0.00,Wunderground v.1.13,2013-10-01 06:20:00,
2013-10-01 02:30:00,63.1,58.8,30.03,South,190,0.0,0.0,86,0.00,,,0.00,Wunderground v.1.13,2013-10-01 06:30:00,
2013-10-01 02:40:00,62.8,58.9,30.03,South,190,0.0,0.0,87,0.00,,,0.00,Wunderground v.1.13,2013-10-01 06:40:00,
2013-10-01 02:50:00,62.3,58.4,30.03,South,190,0.0,0.0,87,0.00,,,0.00,Wunderground v.1.13,2013-10-01 06:50:00,
2013-10-01 03:00:00,61.7,58.1,30.03,South,190,0.0,0.0,88,0.00,,,0.00,Wunderground v.1.13,2013-10-01 07:00:00,
2013-10-01 03:10:00,61.2,57.9,30.04,South,190,0.0,0.0,89,0.00,,,0.00,Wunderground v.1.13,2013-10-01 07:10:00,
2013-10-01 03:20:00,61.1,58.5,30.04,South,190,0.0,0.0,91,0.00,,,0.00,Wunderground v.1.13,2013-10-01 07:20:00,
2013-10-01 03:30:00,60.8,58.8,30.04,South,190,0.0,0.0,93,0.00,,,0.00,Wunderground v.1.13,2013-10-01 07:30:00,
2013-10-01 03:40:00,60.4,58.4,30.04,South,190,0.0,0.0,93,0.00,,,0.00,Wunderground v.1.13,2013-10-01 07:40:00,
2013-10-01 03:50:00,60.3,58.3,30.04,South,190,0.0,0.0,93,0.00,,,0.00,Wunderground v.1.13,2013-10-01 07:50:00,
2013-10-01 04:00:00,60.0,58.0,30.04,South,190,0.0,0.0,93,0.00,,,0.00,Wunderground v.1.13,2013-10-01 08:00:00,
2013-10-01 04:10:00,59.7,57.7,30.04,South,190,0.0,0.0,93,0.00,,,0.00,Wunderground v.1.13,2013-10-01 08:10:00,
2013-10-01 04:20:00,59.4,57.7,30.04,South,190,0.0,0.0,94,0.00,,,0.00,Wunderground v.1.13,2013-10-01 08:20:00,
2013-10-01 04:30:00,59.2,57.8,30.04,South,190,0.0,0.0,95,0.00,,,0.00,Wunderground v.1.13,2013-10-01 08:30:00,
2013-10-01 04:40:00,59.1,57.7,30.05,South,190,0.0,0.0,95,0.00,,,0.00,Wunderground v.1.13,2013-10-01 08:40:00,
2013-10-01 04:50:00,58.8,57.4,30.05,South,190,0.0,0.0,95,0.00,,,0.00,Wunderground v.1.13,2013-10-01 08:50:00,
2013-10-01 05:00:00,58.6,57.2,30.06,South,190,0.0,0.0,95,0.00,,,0.00,Wunderground v.1.13,2013-10-01 09:00:00,
2013-10-01 05:10:00,58.5,57.1,30.06,South,190,0.0,0.0,95,0.00,,,0.00,Wunderground v.1.13,2013-10-01 09:10:00,
2013-10-01 05:20:00,58.3,57.2,30.06,South,190,0.0,0.0,96,0.00,,,0.00,Wunderground v.1.13,2013-10-01 09:20:00,
2013-10-01 05:30:00,58.5,57.7,30.06,South,190,0.0,0.0,97,0.00,,,0.00,Wunderground v.1.13,2013-10-01 09:30:00,
2013-10-01 05:40:00,58.3,57.7,30.07,South,190,0.0,0.0,98,0.00,,,0.00,Wunderground v.1.13,2013-10-01 09:40:00,
2013-10-01 05:50:00,58.3,57.7,30.07,South,190,0.0,0.0,98,0.00,,,0.00,Wunderground v.1.13,2013-10-01 09:50:00,
2013-10-01 06:00:00,58.2,57.6,30.07,South,190,0.0,0.0,98,0.00,,,0.00,Wunderground v.1.13,2013-10-01 10:00:00,
2013-10-01 06:10:00,58.2,57.6,30.07,South,190,0.0,0.0,98,0.00,,,0.00,Wunderground v.1.13,2013-10-01 10:10:00,
2013-10-01 06:20:00,58.0,57.4,30.07,South,190,0.0,0.0,98,0.00,,,0.00,Wunderground v.1.13,2013-10-01 10:20:00,
2013-10-01 06:30:00,57.9,57.1,30.08,South,190,0.0,0.0,97,0.00,,,0.00,Wunderground v.1.13,2013-10-01 10:30:00,
2013-10-01 06:40:00,57.9,57.1,30.08,South,190,0.0,0.0,97,0.00,,,0.00,Wunderground v.1.13,2013-10-01 10:40:00,
2013-10-01 06:50:00,57.9,57.1,30.08,South,190,0.0,0.0,97,0.00,,,0.00,Wunderground v.1.13,2013-10-01 10:50:00,
2013-10-01 07:00:00,57.9,57.1,30.08,South,190,0.0,0.0,97,0.00,,,0.00,Wunderground v.1.13,2013-10-01 11:00:00,
2013-10-01 07:10:00,57.9,57.1,30.09,South,190,0.0,0.0,97,0.00,,,0.00,Wunderground v.1.13,2013-10-01 11:10:00,
2013-10-01 07:20:00,57.9,57.1,30.09,South,190,0.0,0.0,97,0.00,,,0.00,Wunderground v.1.13,2013-10-01 11:20:00,
2013-10-01 07:30:00,57.9,57.1,30.10,South,190,0.0,0.0,97,0.00,,,0.00,Wunderground v.1.13,2013-10-01 11:30:00,
2013-10-01 07:40:00,57.7,56.6,30.10,South,190,0.0,0.0,96,0.00,,,0.00,Wunderground v.1.13,2013-10-01 11:40:00,
2013-10-01 07:50:00,57.5,56.7,30.10,South,190,0.0,0.0,97,0.00,,,0.00,Wunderground v.1.13,2013-10-01 11:50:00,
2013-10-01 08:20:00,57.5,56.7,30.10,South,190,0.0,0.0,97,0.00,,,0.00,Wunderground v.1.13,2013-10-01 12:20:00,
2013-10-01 08:30:00,57.5,56.9,30.12,South,190,0.0,0.0,98,0.00,,,0.00,Wunderground v.1.13,2013-10-01 12:30:00,
2013-10-01 08:40:00,57.9,57.6,30.12,South,190,0.0,0.0,99,0.00,,,0.00,Wunderground v.1.13,2013-10-01 12:40:00,
2013-10-01 08:50:00,58.2,57.9,30.12,South,190,0.0,0.0,99,0.00,,,0.00,Wunderground v.1.13,2013-10-01 12:50:00,
2013-10-01 09:00:00,58.5,58.2,30.13,South,190,0.0,0.0,99,0.00,,,0.00,Wunderground v.1.13,2013-10-01 13:00:00,
2013-10-01 09:10:00,58.8,58.5,30.13,South,190,0.0,0.0,99,0.00,,,0.00,Wunderground v.1.13,2013-10-01 13:10:00,
2013-10-01 09:20:00,59.5,59.5,30.13,South,190,0.0,0.0,100,0.00,,,0.00,Wunderground v.1.13,2013-10-01 13:20:00,
2013-10-01 09:30:00,60.1,60.1,30.13,South,190,0.0,0.0,100,0.00,,,0.00,Wunderground v.1.13,2013-10-01 13:30:00,
2013-10-01 09:40:00,61.1,60.8,30.13,South,178,0.0,0.0,99,0.00,,,0.00,Wunderground v.1.13,2013-10-01 13:40:00,
2013-10-01 09:50:00,61.9,60.7,30.13,South,178,0.0,0.0,96,0.00,,,0.00,Wunderground v.1.13,2013-10-01 13:50:00,
2013-10-01 10:10:00,63.8,59.5,30.13,South,178,0.0,0.0,86,0.00,,,0.00,Wunderground v.1.13,2013-10-01 14:10:00,
2013-10-01 10:20:00,64.7,59.1,30.13,South,178,0.0,0.0,82,0.00,,,0.00,Wunderground v.1.13,2013-10-01 14:20:00,
2013-10-01 10:30:00,66.2,60.2,30.13,South,178,0.0,0.0,81,0.00,,,0.00,Wunderground v.1.13,2013-10-01 14:30:00,
2013-10-01 10:40:00,67.7,60.6,30.13,South,178,0.0,0.0,78,0.00,,,0.00,Wunderground v.1.13,2013-10-01 14:40:00,
2013-10-01 10:50:00,68.7,60.8,30.13,South,178,0.0,0.0,76,0.00,,,0.00,Wunderground v.1.13,2013-10-01 14:50:00,
2013-10-01 11:00:00,69.5,59.7,30.12,South,178,0.0,0.0,71,0.00,,,0.00,Wunderground v.1.13,2013-10-01 15:00:00,
2013-10-01 11:10:00,70.3,60.1,30.12,South,178,0.0,0.0,70,0.00,,,0.00,Wunderground v.1.13,2013-10-01 15:10:00,
2013-10-01 11:20:00,70.5,60.6,30.12,South,178,0.0,0.0,71,0.00,,,0.00,Wunderground v.1.13,2013-10-01 15:20:00,
2013-10-01 11:30:00,71.0,61.1,30.12,South,178,0.0,0.0,71,0.00,,,0.00,Wunderground v.1.13,2013-10-01 15:30:00,
2013-10-01 11:40:00,71.4,59.4,30.12,South,178,0.0,0.0,66,0.00,,,0.00,Wunderground v.1.13,2013-10-01 15:40:00,
2013-10-01 11:50:00,72.2,60.2,30.12,South,179,0.0,0.0,66,0.00,,,0.00,Wunderground v.1.13,2013-10-01 15:50:00,
2013-10-01 12:00:00,72.6,59.7,30.12,SSW,194,0.0,0.0,64,0.00,,,0.00,Wunderground v.1.13,2013-10-01 16:00:00,
2013-10-01 12:10:00,73.6,60.2,30.12,SSW,202,0.0,0.0,63,0.00,,,0.00,Wunderground v.1.13,2013-10-01 16:10:00,
2013-10-01 12:20:00,74.3,61.3,30.12,SSW,202,0.0,0.0,64,0.00,,,0.00,Wunderground v.1.13,2013-10-01 16:20:00,
2013-10-01 12:30:00,74.6,60.3,30.11,SSW,202,0.0,0.0,61,0.00,,,0.00,Wunderground v.1.13,2013-10-01 16:30:00,
2013-10-01 12:40:00,74.6,62.1,30.10,South,190,0.0,0.0,65,0.00,,,0.00,Wunderground v.1.13,2013-10-01 16:40:00,
2013-10-01 12:50:00,75.0,60.2,30.10,SSW,210,0.0,0.0,60,0.00,,,0.00,Wunderground v.1.13,2013-10-01 16:50:00,
2013-10-01 13:00:00,75.3,61.4,30.10,SSW,210,0.0,0.0,62,0.00,,,0.00,Wunderground v.1.13,2013-10-01 17:00:00,
2013-10-01 13:10:00,74.5,60.6,30.10,SW,233,0.0,0.0,62,0.00,,,0.00,Wunderground v.1.13,2013-10-01 17:10:00,
2013-10-01 13:20:00,74.1,59.8,30.10,SW,233,0.0,0.0,61,0.00,,,0.00,Wunderground v.1.13,2013-10-01 17:20:00,
2013-10-01 13:30:00,74.5,61.1,30.09,West,281,0.0,1.0,63,0.00,,,0.00,Wunderground v.1.13,2013-10-01 17:30:00,
2013-10-01 13:40:00,74.8,60.0,30.08,WSW,237,0.0,0.0,60,0.00,,,0.00,Wunderground v.1.13,2013-10-01 17:40:00,
2013-10-01 13:50:00,75.2,58.9,30.08,SW,236,0.0,1.0,57,0.00,,,0.00,Wunderground v.1.13,2013-10-01 17:50:00,
2013-10-01 14:00:00,75.9,60.1,30.08,WSW,240,0.0,0.0,58,0.00,,,0.00,Wunderground v.1.13,2013-10-01 18:00:00,
2013-10-01 14:10:00,75.5,58.7,30.07,WSW,241,1.0,1.0,56,0.00,,,0.00,Wunderground v.1.13,2013-10-01 18:10:00,
2013-10-01 14:20:00,74.6,59.3,30.07,WSW,241,0.0,0.0,59,0.00,,,0.00,Wunderground v.1.13,2013-10-01 18:20:00,
2013-10-01 14:30:00,75.7,58.9,30.07,WSW,245,0.0,0.0,56,0.00,,,0.00,Wunderground v.1.13,2013-10-01 18:30:00,
2013-10-01 14:40:00,75.9,58.1,30.06,NW,312,1.0,1.0,54,0.00,,,0.00,Wunderground v.1.13,2013-10-01 18:40:00,
2013-10-01 14:50:00,75.7,57.9,30.06,WSW,240,0.0,0.0,54,0.00,,,0.00,Wunderground v.1.13,2013-10-01 18:50:00,
2013-10-01 15:00:00,75.2,59.9,30.06,SSW,192,0.0,0.0,59,0.00,,,0.00,Wunderground v.1.13,2013-10-01 19:00:00,
2013-10-01 15:10:00,75.3,58.5,30.06,WNW,301,0.0,2.0,56,0.00,,,0.00,Wunderground v.1.13,2013-10-01 19:10:00,
2013-10-01 15:20:00,75.5,59.2,30.06,WNW,300,0.0,0.0,57,0.00,,,0.00,Wunderground v.1.13,2013-10-01 19:20:00,
2013-10-01 15:30:00,76.4,59.0,30.06,West,280,0.0,0.0,55,0.00,,,0.00,Wunderground v.1.13,2013-10-01 19:30:00,
2013-10-01 15:40:00,76.6,58.7,30.05,WNW,291,1.0,1.0,54,0.00,,,0.00,Wunderground v.1.13,2013-10-01 19:40:00,
2013-10-01 15:50:00,76.6,59.7,30.05,WNW,291,0.0,0.0,56,0.00,,,0.00,Wunderground v.1.13,2013-10-01 19:50:00,
2013-10-01 16:00:00,77.8,59.8,30.05,South,188,0.0,0.0,54,0.00,,,0.00,Wunderground v.1.13,2013-10-01 20:00:00,
2013-10-01 16:10:00,79.1,59.4,30.04,SSW,198,0.0,0.0,51,0.00,,,0.00,Wunderground v.1.13,2013-10-01 20:10:00,
2013-10-01 16:20:00,79.5,60.3,30.04,SW,221,0.0,0.0,52,0.00,,,0.00,Wunderground v.1.13,2013-10-01 20:20:00,
2013-10-01 16:30:00,79.3,59.0,30.04,West,259,0.0,0.0,50,0.00,,,0.00,Wunderground v.1.13,2013-10-01 20:30:00,
2013-10-01 16:40:00,78.0,59.5,30.04,SSW,205,0.0,0.0,53,0.00,,,0.00,Wunderground v.1.13,2013-10-01 20:40:00,
2013-10-01 16:50:00,76.4,60.5,30.04,SSW,205,0.0,0.0,58,0.00,,,0.00,Wunderground v.1.13,2013-10-01 20:50:00,
2013-10-01 17:00:00,76.7,59.3,30.04,SSW,205,0.0,0.0,55,0.00,,,0.00,Wunderground v.1.13,2013-10-01 21:00:00,
2013-10-01 17:10:00,77.6,59.1,30.04,SSW,205,0.0,0.0,53,0.00,,,0.00,Wunderground v.1.13,2013-10-01 21:10:00,
2013-10-01 17:20:00,78.0,60.0,30.04,SSW,205,0.0,0.0,54,0.00,,,0.00,Wunderground v.1.13,2013-10-01 21:20:00,
2013-10-01 17:30:00,78.2,62.2,30.04,SSW,206,0.0,0.0,58,0.00,,,0.00,Wunderground v.1.13,2013-10-01 21:30:00,
2013-10-01 17:40:00,77.3,62.3,30.04,SSW,206,0.0,0.0,60,0.00,,,0.00,Wunderground v.1.13,2013-10-01 21:40:00,
2013-10-01 17:50:00,76.6,62.6,30.04,SSW,206,0.0,0.0,62,0.00,,,0.00,Wunderground v.1.13,2013-10-01 21:50:00,
2013-10-01 18:10:00,78.0,61.0,30.04,SSW,206,0.0,0.0,56,0.00,,,0.00,Wunderground v.1.13,2013-10-01 22:10:00,
2013-10-01 18:20:00,78.4,62.9,30.04,SSW,206,0.0,0.0,59,0.00,,,0.00,Wunderground v.1.13,2013-10-01 22:20:00,
2013-10-01 18:30:00,77.6,63.5,30.04,SSW,206,0.0,0.0,62,0.00,,,0.00,Wunderground v.1.13,2013-10-01 22:30:00,
2013-10-01 18:40:00,76.0,61.6,30.04,SSW,206,0.0,0.0,61,0.00,,,0.00,Wunderground v.1.13,2013-10-01 22:40:00,
2013-10-01 18:50:00,73.9,61.8,30.04,SSW,206,0.0,0.0,66,0.00,,,0.00,Wunderground v.1.13,2013-10-01 22:50:00,
2013-10-01 19:00:00,73.1,61.9,30.05,SSW,206,0.0,0.0,68,0.00,,,0.00,Wunderground v.1.13,2013-10-01 23:00:00,
2013-10-01 19:10:00,72.2,61.9,30.05,SSW,206,0.0,0.0,70,0.00,,,0.00,Wunderground v.1.13,2013-10-01 23:10:00,
2013-10-01 19:20:00,71.0,61.1,30.05,SSW,206,0.0,0.0,71,0.00,,,0.00,Wunderground v.1.13,2013-10-01 23:20:00,
2013-10-01 19:30:00,70.2,61.1,30.06,SSW,206,0.0,0.0,73,0.00,,,0.00,Wunderground v.1.13,2013-10-01 23:30:00,
2013-10-01 19:40:00,69.5,61.6,30.06,SSW,206,0.0,0.0,76,0.00,,,0.00,Wunderground v.1.13,2013-10-01 23:40:00,
2013-10-01 19:50:00,68.5,61.4,30.06,SSW,206,0.0,0.0,78,0.00,,,0.00,Wunderground v.1.13,2013-10-01 23:50:00,
2013-10-01 20:00:00,67.7,61.7,30.07,SSW,206,0.0,0.0,81,0.00,,,0.00,Wunderground v.1.13,2013-10-02 00:00:00,
2013-10-01 20:10:00,67.2,61.5,30.07,SSW,206,0.0,0.0,82,0.00,,,0.00,Wunderground v.1.13,2013-10-02 00:10:00,
2013-10-01 20:20:00,66.7,61.4,30.07,SSW,206,0.0,0.0,83,0.00,,,0.00,Wunderground v.1.13,2013-10-02 00:20:00,
2013-10-01 20:30:00,66.2,61.6,30.07,SSW,206,0.0,0.0,85,0.00,,,0.00,Wunderground v.1.13,2013-10-02 00:30:00,
2013-10-01 20:40:00,65.9,61.6,30.07,SSW,206,0.0,0.0,86,0.00,,,0.00,Wunderground v.1.13,2013-10-02 00:40:00,
2013-10-01 20:50:00,65.4,61.4,30.07,SSW,206,0.0,0.0,87,0.00,,,0.00,Wunderground v.1.13,2013-10-02 00:50:00,
2013-10-01 21:00:00,65.2,61.9,30.07,SSW,206,0.0,0.0,89,0.00,,,0.00,Wunderground v.1.13,2013-10-02 01:00:00,
2013-10-01 21:10:00,65.2,62.2,30.08,SSW,206,0.0,0.0,90,0.00,,,0.00,Wunderground v.1.13,2013-10-02 01:10:00,
2013-10-01 21:20:00,65.1,62.1,30.08,SSW,206,0.0,0.0,90,0.00,,,0.00,Wunderground v.1.13,2013-10-02 01:20:00,
2013-10-01 21:30:00,64.9,61.9,30.08,SSW,206,0.0,0.0,90,0.00,,,0.00,Wunderground v.1.13,2013-10-02 01:30:00,
2013-10-01 21:40:00,64.7,61.7,30.08,SSW,206,0.0,0.0,90,0.00,,,0.00,Wunderground v.1.13,2013-10-02 01:40:00,
2013-10-01 21:50:00,64.9,61.3,30.08,SSW,206,0.0,0.0,88,0.00,,,0.00,Wunderground v.1.13,2013-10-02 01:50:00,
2013-10-01 22:00:00,64.7,61.1,30.08,SSW,206,0.0,0.0,88,0.00,,,0.00,Wunderground v.1.13,2013-10-02 02:00:00,
2013-10-01 22:10:00,64.7,60.7,30.09,SSW,206,0.0,0.0,87,0.00,,,0.00,Wunderground v.1.13,2013-10-02 02:10:00,
2013-10-01 22:20:00,64.7,60.7,30.09,SSW,206,0.0,0.0,87,0.00,,,0.00,Wunderground v.1.13,2013-10-02 02:20:00,
2013-10-01 22:30:00,64.6,60.3,30.09,SSW,206,0.0,0.0,86,0.00,,,0.00,Wunderground v.1.13,2013-10-02 02:30:00,
2013-10-01 22:40:00,64.6,60.3,30.09,SSW,206,0.0,0.0,86,0.00,,,0.00,Wunderground v.1.13,2013-10-02 02:40:00,
2013-10-01 22:50:00,64.4,60.1,30.09,SSW,206,0.0,0.0,86,0.00,,,0.00,Wunderground v.1.13,2013-10-02 02:50:00,
2013-10-01 23:00:00,64.6,60.3,30.09,SSW,206,0.0,0.0,86,0.00,,,0.00,Wunderground v.1.13,2013-10-02 03:00:00,
2013-10-01 23:10:00,64.6,60.3,30.09,SSW,206,0.0,0.0,86,0.00,,,0.00,Wunderground v.1.13,2013-10-02 03:10:00,
2013-10-01 23:20:00,64.4,60.1,30.09,SSW,206,0.0,0.0,86,0.00,,,0.00,Wunderground v.1.13,2013-10-02 03:20:00,
2013-10-01 23:30:00,64.2,59.9,30.09,SSW,206,0.0,0.0,86,0.00,,,0.00,Wunderground v.1.13,2013-10-02 03:30:00,
2013-10-01 23:40:00,63.9,59.6,30.09,SSW,206,0.0,0.0,86,0.00,,,0.00,Wunderground v.1.13,2013-10-02 03:40:00,
2013-10-01 23:50:00,63.6,59.7,30.09,SSW,206,0.0,0.0,87,0.00,,,0.00,Wunderground v.1.13,2013-10-02 03:50:00,